sensor_id;sensor_type;location;lat;lon;timestamp;P1;durP1;ratioP1;P2;durP2;ratioP2
56319;SDS011;42226;42.382;23.748;2024-03-02T00:02:14;56.75;;;18.77;;
56319;SDS011;42226;42.382;23.748;2024-03-02T00:04:43;123.47;;;20.15;;
56319;SDS011;42226;42.382;23.748;2024-03-02T00:07:12;77.53;;;19.02;;
56319;SDS011;42226;42.382;23.748;2024-03-02T00:09:41;59.83;;;19.10;;
56319;SDS011;42226;42.382;23.748;2024-03-02T00:12:10;118.72;;;22.17;;
56319;SDS011;42226;42.382;23.748;2024-03-02T00:14:41;36.78;;;16.88;;
56319;SDS011;42226;42.382;23.748;2024-03-02T00:17:11;32.75;;;17.25;;
56319;SDS011;42226;42.382;23.748;2024-03-02T00:19:50;27.85;;;16.77;;
56319;SDS011;42226;42.382;23.748;2024-03-02T00:22:17;27.85;;;16.15;;
56319;SDS011;42226;42.382;23.748;2024-03-02T00:24:45;26.83;;;15.07;;
56319;SDS011;42226;42.382;23.748;2024-03-02T00:27:14;32.30;;;16.67;;
56319;SDS011;42226;42.382;23.748;2024-03-02T00:29:44;30.05;;;16.48;;
56319;SDS011;42226;42.382;23.748;2024-03-02T00:32:13;26.05;;;16.50;;
56319;SDS011;42226;42.382;23.748;2024-03-02T00:34:42;25.50;;;15.82;;
56319;SDS011;42226;42.382;23.748;2024-03-02T00:37:10;27.58;;;15.05;;
56319;SDS011;42226;42.382;23.748;2024-03-02T00:39:38;26.33;;;15.98;;
56319;SDS011;42226;42.382;23.748;2024-03-02T00:42:06;27.73;;;16.85;;
56319;SDS011;42226;42.382;23.748;2024-03-02T00:44:33;30.50;;;16.92;;
56319;SDS011;42226;42.382;23.748;2024-03-02T00:47:00;31.38;;;16.17;;
56319;SDS011;42226;42.382;23.748;2024-03-02T00:49:38;24.98;;;15.48;;
56319;SDS011;42226;42.382;23.748;2024-03-02T00:52:05;39.53;;;16.00;;
56319;SDS011;42226;42.382;23.748;2024-03-02T00:54:32;28.23;;;16.13;;
56319;SDS011;42226;42.382;23.748;2024-03-02T00:57:00;27.73;;;15.77;;
56319;SDS011;42226;42.382;23.748;2024-03-02T00:59:27;27.80;;;16.48;;
56319;SDS011;42226;42.382;23.748;2024-03-02T01:01:55;66.82;;;18.20;;
56319;SDS011;42226;42.382;23.748;2024-03-02T01:04:22;101.50;;;19.58;;
56319;SDS011;42226;42.382;23.748;2024-03-02T01:06:50;215.27;;;20.65;;
56319;SDS011;42226;42.382;23.748;2024-03-02T01:09:17;42.05;;;16.90;;
56319;SDS011;42226;42.382;23.748;2024-03-02T01:11:45;71.68;;;17.23;;
56319;SDS011;42226;42.382;23.748;2024-03-02T01:14:12;71.88;;;18.65;;
56319;SDS011;42226;42.382;23.748;2024-03-02T01:16:39;72.20;;;17.65;;
56319;SDS011;42226;42.382;23.748;2024-03-02T01:19:06;168.63;;;21.00;;
56319;SDS011;42226;42.382;23.748;2024-03-02T01:21:34;383.73;;;27.67;;
56319;SDS011;42226;42.382;23.748;2024-03-02T01:24:02;84.25;;;17.48;;
56319;SDS011;42226;42.382;23.748;2024-03-02T01:26:29;100.60;;;19.25;;
56319;SDS011;42226;42.382;23.748;2024-03-02T01:28:56;90.28;;;18.42;;
56319;SDS011;42226;42.382;23.748;2024-03-02T01:34:34;80.45;;;16.60;;
56319;SDS011;42226;42.382;23.748;2024-03-02T01:37:01;276.08;;;23.42;;
56319;SDS011;42226;42.382;23.748;2024-03-02T01:39:28;166.20;;;20.60;;
56319;SDS011;42226;42.382;23.748;2024-03-02T01:41:55;122.65;;;17.90;;
56319;SDS011;42226;42.382;23.748;2024-03-02T01:44:23;94.68;;;17.95;;
56319;SDS011;42226;42.382;23.748;2024-03-02T01:46:50;166.88;;;19.10;;
56319;SDS011;42226;42.382;23.748;2024-03-02T01:49:18;128.63;;;18.30;;
56319;SDS011;42226;42.382;23.748;2024-03-02T01:51:45;273.67;;;21.10;;
56319;SDS011;42226;42.382;23.748;2024-03-02T01:54:13;315.23;;;23.80;;
56319;SDS011;42226;42.382;23.748;2024-03-02T01:56:39;321.55;;;22.60;;
56319;SDS011;42226;42.382;23.748;2024-03-02T01:59:07;334.50;;;22.42;;
56319;SDS011;42226;42.382;23.748;2024-03-02T02:01:33;247.40;;;21.05;;
56319;SDS011;42226;42.382;23.748;2024-03-02T02:04:01;256.35;;;21.17;;
56319;SDS011;42226;42.382;23.748;2024-03-02T02:06:28;219.27;;;19.60;;
56319;SDS011;42226;42.382;23.748;2024-03-02T02:08:56;229.23;;;19.48;;
56319;SDS011;42226;42.382;23.748;2024-03-02T02:11:24;98.72;;;16.30;;
56319;SDS011;42226;42.382;23.748;2024-03-02T02:13:51;161.32;;;17.65;;
56319;SDS011;42226;42.382;23.748;2024-03-02T02:16:21;148.45;;;17.35;;
56319;SDS011;42226;42.382;23.748;2024-03-02T02:18:48;145.00;;;17.88;;
56319;SDS011;42226;42.382;23.748;2024-03-02T02:21:15;73.80;;;16.35;;
56319;SDS011;42226;42.382;23.748;2024-03-02T02:23:42;114.32;;;16.42;;
56319;SDS011;42226;42.382;23.748;2024-03-02T02:26:26;91.70;;;16.25;;
56319;SDS011;42226;42.382;23.748;2024-03-02T02:28:54;151.95;;;17.67;;
56319;SDS011;42226;42.382;23.748;2024-03-02T02:31:21;74.35;;;16.70;;
56319;SDS011;42226;42.382;23.748;2024-03-02T02:33:48;39.83;;;16.23;;
56319;SDS011;42226;42.382;23.748;2024-03-02T02:36:16;50.20;;;16.40;;
56319;SDS011;42226;42.382;23.748;2024-03-02T02:38:44;24.75;;;15.85;;
56319;SDS011;42226;42.382;23.748;2024-03-02T02:41:14;55.25;;;16.85;;
56319;SDS011;42226;42.382;23.748;2024-03-02T02:43:41;36.53;;;15.95;;
56319;SDS011;42226;42.382;23.748;2024-03-02T02:46:08;31.00;;;15.50;;
56319;SDS011;42226;42.382;23.748;2024-03-02T02:48:36;30.40;;;16.70;;
56319;SDS011;42226;42.382;23.748;2024-03-02T02:51:04;45.17;;;17.13;;
56319;SDS011;42226;42.382;23.748;2024-03-02T02:53:32;81.70;;;16.50;;
56319;SDS011;42226;42.382;23.748;2024-03-02T02:56:01;40.45;;;15.85;;
56319;SDS011;42226;42.382;23.748;2024-03-02T02:58:29;171.98;;;19.80;;
56319;SDS011;42226;42.382;23.748;2024-03-02T03:00:56;105.70;;;18.35;;
56319;SDS011;42226;42.382;23.748;2024-03-02T03:03:24;79.75;;;16.60;;
56319;SDS011;42226;42.382;23.748;2024-03-02T03:05:50;138.13;;;18.67;;
56319;SDS011;42226;42.382;23.748;2024-03-02T03:08:18;273.25;;;21.92;;
56319;SDS011;42226;42.382;23.748;2024-03-02T03:10:45;223.65;;;20.48;;
56319;SDS011;42226;42.382;23.748;2024-03-02T03:13:13;228.15;;;20.45;;
56319;SDS011;42226;42.382;23.748;2024-03-02T03:15:40;104.53;;;17.52;;
56319;SDS011;42226;42.382;23.748;2024-03-02T03:18:09;108.47;;;16.77;;
56319;SDS011;42226;42.382;23.748;2024-03-02T03:20:37;108.90;;;15.88;;
56319;SDS011;42226;42.382;23.748;2024-03-02T03:23:05;224.05;;;21.83;;
56319;SDS011;42226;42.382;23.748;2024-03-02T03:25:33;96.60;;;16.80;;
56319;SDS011;42226;42.382;23.748;2024-03-02T03:28:02;102.93;;;16.83;;
56319;SDS011;42226;42.382;23.748;2024-03-02T03:30:30;457.48;;;31.77;;
56319;SDS011;42226;42.382;23.748;2024-03-02T03:32:57;330.13;;;22.17;;
56319;SDS011;42226;42.382;23.748;2024-03-02T03:35:25;240.18;;;20.15;;
56319;SDS011;42226;42.382;23.748;2024-03-02T03:37:51;492.25;;;31.00;;
56319;SDS011;42226;42.382;23.748;2024-03-02T03:40:19;201.52;;;18.73;;
56319;SDS011;42226;42.382;23.748;2024-03-02T03:42:45;373.52;;;23.33;;
56319;SDS011;42226;42.382;23.748;2024-03-02T03:45:13;450.80;;;27.77;;
56319;SDS011;42226;42.382;23.748;2024-03-02T03:47:41;276.13;;;20.95;;
56319;SDS011;42226;42.382;23.748;2024-03-02T03:50:10;205.55;;;17.63;;
56319;SDS011;42226;42.382;23.748;2024-03-02T03:52:37;442.80;;;25.45;;
56319;SDS011;42226;42.382;23.748;2024-03-02T03:55:04;396.88;;;27.23;;
56319;SDS011;42226;42.382;23.748;2024-03-02T03:57:34;433.92;;;26.05;;
56319;SDS011;42226;42.382;23.748;2024-03-02T04:00:01;216.77;;;17.20;;
56319;SDS011;42226;42.382;23.748;2024-03-02T04:02:29;98.80;;;15.52;;
56319;SDS011;42226;42.382;23.748;2024-03-02T04:04:55;340.88;;;20.15;;
56319;SDS011;42226;42.382;23.748;2024-03-02T04:07:23;357.48;;;22.73;;
56319;SDS011;42226;42.382;23.748;2024-03-02T04:09:49;323.38;;;21.90;;
56319;SDS011;42226;42.382;23.748;2024-03-02T04:12:17;387.58;;;25.92;;
56319;SDS011;42226;42.382;23.748;2024-03-02T04:14:45;327.48;;;21.80;;
56319;SDS011;42226;42.382;23.748;2024-03-02T04:17:12;447.17;;;27.48;;
56319;SDS011;42226;42.382;23.748;2024-03-02T04:19:40;416.67;;;26.08;;
56319;SDS011;42226;42.382;23.748;2024-03-02T04:22:06;590.97;;;35.15;;
56319;SDS011;42226;42.382;23.748;2024-03-02T04:24:35;429.67;;;25.90;;
56319;SDS011;42226;42.382;23.748;2024-03-02T04:27:02;527.33;;;30.10;;
56319;SDS011;42226;42.382;23.748;2024-03-02T04:29:29;563.95;;;31.63;;
56319;SDS011;42226;42.382;23.748;2024-03-02T04:31:56;401.85;;;26.42;;
56319;SDS011;42226;42.382;23.748;2024-03-02T04:34:24;508.08;;;29.63;;
56319;SDS011;42226;42.382;23.748;2024-03-02T04:36:51;392.60;;;24.90;;
56319;SDS011;42226;42.382;23.748;2024-03-02T04:39:19;424.15;;;25.90;;
56319;SDS011;42226;42.382;23.748;2024-03-02T04:41:46;228.15;;;19.35;;
56319;SDS011;42226;42.382;23.748;2024-03-02T04:44:13;70.10;;;14.13;;
56319;SDS011;42226;42.382;23.748;2024-03-02T04:46:40;367.85;;;21.63;;
56319;SDS011;42226;42.382;23.748;2024-03-02T04:49:07;231.60;;;19.52;;
56319;SDS011;42226;42.382;23.748;2024-03-02T04:51:35;179.00;;;17.13;;
56319;SDS011;42226;42.382;23.748;2024-03-02T04:54:01;383.83;;;26.33;;
56319;SDS011;42226;42.382;23.748;2024-03-02T04:56:28;247.43;;;19.23;;
56319;SDS011;42226;42.382;23.748;2024-03-02T04:58:58;198.35;;;18.58;;
56319;SDS011;42226;42.382;23.748;2024-03-02T05:01:26;155.13;;;16.80;;
56319;SDS011;42226;42.382;23.748;2024-03-02T05:03:53;368.77;;;23.63;;
56319;SDS011;42226;42.382;23.748;2024-03-02T05:06:22;106.43;;;14.93;;
56319;SDS011;42226;42.382;23.748;2024-03-02T05:08:50;168.68;;;16.95;;
56319;SDS011;42226;42.382;23.748;2024-03-02T05:11:17;278.40;;;20.02;;
56319;SDS011;42226;42.382;23.748;2024-03-02T05:16:55;301.92;;;22.35;;
56319;SDS011;42226;42.382;23.748;2024-03-02T05:19:24;154.88;;;17.10;;
56319;SDS011;42226;42.382;23.748;2024-03-02T05:21:52;362.60;;;21.33;;
56319;SDS011;42226;42.382;23.748;2024-03-02T05:24:19;183.60;;;15.90;;
56319;SDS011;42226;42.382;23.748;2024-03-02T05:26:46;281.13;;;19.15;;
56319;SDS011;42226;42.382;23.748;2024-03-02T05:29:14;108.78;;;14.35;;
56319;SDS011;42226;42.382;23.748;2024-03-02T05:31:43;239.75;;;18.15;;
56319;SDS011;42226;42.382;23.748;2024-03-02T05:34:10;341.40;;;23.63;;
56319;SDS011;42226;42.382;23.748;2024-03-02T05:36:37;106.25;;;14.20;;
56319;SDS011;42226;42.382;23.748;2024-03-02T05:39:04;170.63;;;17.40;;
56319;SDS011;42226;42.382;23.748;2024-03-02T05:41:36;306.75;;;21.95;;
56319;SDS011;42226;42.382;23.748;2024-03-02T05:44:03;220.15;;;16.42;;
56319;SDS011;42226;42.382;23.748;2024-03-02T05:46:31;119.60;;;15.38;;
56319;SDS011;42226;42.382;23.748;2024-03-02T05:48:58;126.90;;;14.63;;
56319;SDS011;42226;42.382;23.748;2024-03-02T05:51:29;130.55;;;16.20;;
56319;SDS011;42226;42.382;23.748;2024-03-02T05:53:57;90.68;;;14.07;;
56319;SDS011;42226;42.382;23.748;2024-03-02T05:56:24;94.95;;;14.50;;
56319;SDS011;42226;42.382;23.748;2024-03-02T06:02:33;63.30;;;13.52;;
56319;SDS011;42226;42.382;23.748;2024-03-02T06:05:03;71.43;;;14.43;;
56319;SDS011;42226;42.382;23.748;2024-03-02T06:07:32;150.30;;;16.73;;
56319;SDS011;42226;42.382;23.748;2024-03-02T06:10:00;153.55;;;16.92;;
56319;SDS011;42226;42.382;23.748;2024-03-02T06:12:27;146.25;;;16.63;;
56319;SDS011;42226;42.382;23.748;2024-03-02T06:14:57;72.15;;;13.75;;
56319;SDS011;42226;42.382;23.748;2024-03-02T06:17:24;77.45;;;14.38;;
56319;SDS011;42226;42.382;23.748;2024-03-02T06:19:52;93.90;;;14.13;;
56319;SDS011;42226;42.382;23.748;2024-03-02T06:22:18;86.93;;;14.13;;
56319;SDS011;42226;42.382;23.748;2024-03-02T06:24:51;77.47;;;13.20;;
56319;SDS011;42226;42.382;23.748;2024-03-02T06:27:17;77.68;;;13.38;;
56319;SDS011;42226;42.382;23.748;2024-03-02T06:29:45;30.90;;;12.35;;
56319;SDS011;42226;42.382;23.748;2024-03-02T06:32:12;51.90;;;12.80;;
56319;SDS011;42226;42.382;23.748;2024-03-02T06:34:39;141.10;;;15.50;;
56319;SDS011;42226;42.382;23.748;2024-03-02T06:37:06;66.43;;;12.13;;
56319;SDS011;42226;42.382;23.748;2024-03-02T06:39:34;198.93;;;15.77;;
56319;SDS011;42226;42.382;23.748;2024-03-02T06:42:02;118.80;;;14.80;;
56319;SDS011;42226;42.382;23.748;2024-03-02T06:44:30;181.52;;;16.20;;
56319;SDS011;42226;42.382;23.748;2024-03-02T06:46:59;109.13;;;14.40;;
56319;SDS011;42226;42.382;23.748;2024-03-02T06:49:27;85.65;;;14.10;;
56319;SDS011;42226;42.382;23.748;2024-03-02T06:51:55;85.95;;;14.85;;
56319;SDS011;42226;42.382;23.748;2024-03-02T06:54:21;108.38;;;15.10;;
56319;SDS011;42226;42.382;23.748;2024-03-02T06:56:49;27.98;;;13.30;;
56319;SDS011;42226;42.382;23.748;2024-03-02T06:59:16;28.08;;;12.45;;
56319;SDS011;42226;42.382;23.748;2024-03-02T07:01:42;30.80;;;16.40;;
56319;SDS011;42226;42.382;23.748;2024-03-02T07:04:10;43.22;;;15.18;;
56319;SDS011;42226;42.382;23.748;2024-03-02T07:06:37;68.38;;;16.35;;
56319;SDS011;42226;42.382;23.748;2024-03-02T07:09:05;69.25;;;15.52;;
56319;SDS011;42226;42.382;23.748;2024-03-02T07:11:37;100.15;;;16.70;;
56319;SDS011;42226;42.382;23.748;2024-03-02T07:14:04;59.20;;;15.57;;
56319;SDS011;42226;42.382;23.748;2024-03-02T07:16:32;29.75;;;15.00;;
56319;SDS011;42226;42.382;23.748;2024-03-02T07:18:59;34.40;;;13.82;;
56319;SDS011;42226;42.382;23.748;2024-03-02T07:21:27;47.67;;;15.15;;
56319;SDS011;42226;42.382;23.748;2024-03-02T07:23:55;131.57;;;16.98;;
56319;SDS011;42226;42.382;23.748;2024-03-02T07:26:22;50.72;;;15.60;;
56319;SDS011;42226;42.382;23.748;2024-03-02T07:28:50;386.75;;;28.50;;
56319;SDS011;42226;42.382;23.748;2024-03-02T07:31:17;114.50;;;16.73;;
56319;SDS011;42226;42.382;23.748;2024-03-02T07:33:45;190.73;;;21.65;;
56319;SDS011;42226;42.382;23.748;2024-03-02T07:36:13;62.75;;;15.88;;
56319;SDS011;42226;42.382;23.748;2024-03-02T07:38:42;75.15;;;17.23;;
56319;SDS011;42226;42.382;23.748;2024-03-02T07:43:59;35.65;;;15.32;;
56319;SDS011;42226;42.382;23.748;2024-03-02T07:46:26;83.72;;;17.17;;
56319;SDS011;42226;42.382;23.748;2024-03-02T07:48:53;37.53;;;14.75;;
56319;SDS011;42226;42.382;23.748;2024-03-02T07:51:20;123.68;;;17.02;;
56319;SDS011;42226;42.382;23.748;2024-03-02T07:53:47;43.42;;;16.33;;
56319;SDS011;42226;42.382;23.748;2024-03-02T07:56:15;445.42;;;29.77;;
56319;SDS011;42226;42.382;23.748;2024-03-02T07:58:48;109.03;;;17.23;;
56319;SDS011;42226;42.382;23.748;2024-03-02T08:01:16;637.10;;;44.03;;
56319;SDS011;42226;42.382;23.748;2024-03-02T08:03:44;424.42;;;31.27;;
56319;SDS011;42226;42.382;23.748;2024-03-02T08:06:16;53.15;;;16.40;;
56319;SDS011;42226;42.382;23.748;2024-03-02T08:08:47;302.70;;;24.10;;
56319;SDS011;42226;42.382;23.748;2024-03-02T08:11:14;275.63;;;24.98;;
56319;SDS011;42226;42.382;23.748;2024-03-02T08:13:42;115.95;;;18.42;;
56319;SDS011;42226;42.382;23.748;2024-03-02T08:16:09;175.45;;;19.70;;
56319;SDS011;42226;42.382;23.748;2024-03-02T08:18:36;314.02;;;24.88;;
56319;SDS011;42226;42.382;23.748;2024-03-02T08:21:05;135.35;;;18.48;;
56319;SDS011;42226;42.382;23.748;2024-03-02T08:23:33;113.80;;;16.52;;
56319;SDS011;42226;42.382;23.748;2024-03-02T08:26:01;134.65;;;18.08;;
56319;SDS011;42226;42.382;23.748;2024-03-02T08:28:27;249.65;;;22.63;;
56319;SDS011;42226;42.382;23.748;2024-03-02T08:30:55;134.63;;;17.60;;
56319;SDS011;42226;42.382;23.748;2024-03-02T08:33:22;276.60;;;24.10;;
56319;SDS011;42226;42.382;23.748;2024-03-02T08:35:50;330.88;;;23.38;;
56319;SDS011;42226;42.382;23.748;2024-03-02T08:38:17;218.32;;;20.17;;
56319;SDS011;42226;42.382;23.748;2024-03-02T08:40:45;195.77;;;18.45;;
56319;SDS011;42226;42.382;23.748;2024-03-02T08:43:13;48.92;;;13.80;;
56319;SDS011;42226;42.382;23.748;2024-03-02T08:45:41;147.63;;;16.95;;
56319;SDS011;42226;42.382;23.748;2024-03-02T08:48:09;32.30;;;14.30;;
56319;SDS011;42226;42.382;23.748;2024-03-02T08:50:36;46.90;;;14.27;;
56319;SDS011;42226;42.382;23.748;2024-03-02T08:53:04;71.28;;;14.23;;
56319;SDS011;42226;42.382;23.748;2024-03-02T08:55:30;31.42;;;12.77;;
56319;SDS011;42226;42.382;23.748;2024-03-02T08:57:59;23.15;;;12.00;;
56319;SDS011;42226;42.382;23.748;2024-03-02T09:00:27;48.08;;;14.88;;
56319;SDS011;42226;42.382;23.748;2024-03-02T09:02:55;101.85;;;14.38;;
56319;SDS011;42226;42.382;23.748;2024-03-02T09:05:22;60.97;;;14.35;;
56319;SDS011;42226;42.382;23.748;2024-03-02T09:07:50;45.58;;;13.43;;
56319;SDS011;42226;42.382;23.748;2024-03-02T09:10:17;25.38;;;13.48;;
56319;SDS011;42226;42.382;23.748;2024-03-02T09:12:44;29.08;;;12.57;;
56319;SDS011;42226;42.382;23.748;2024-03-02T09:15:13;25.30;;;13.35;;
56319;SDS011;42226;42.382;23.748;2024-03-02T09:17:40;26.45;;;13.38;;
56319;SDS011;42226;42.382;23.748;2024-03-02T09:20:07;20.85;;;12.38;;
56319;SDS011;42226;42.382;23.748;2024-03-02T09:22:34;27.17;;;13.18;;
56319;SDS011;42226;42.382;23.748;2024-03-02T09:25:02;27.95;;;12.55;;
56319;SDS011;42226;42.382;23.748;2024-03-02T09:27:41;29.50;;;12.60;;
56319;SDS011;42226;42.382;23.748;2024-03-02T09:30:09;44.25;;;13.48;;
56319;SDS011;42226;42.382;23.748;2024-03-02T09:32:37;21.33;;;12.02;;
56319;SDS011;42226;42.382;23.748;2024-03-02T09:35:04;20.60;;;12.45;;
56319;SDS011;42226;42.382;23.748;2024-03-02T09:37:32;18.65;;;12.20;;
56319;SDS011;42226;42.382;23.748;2024-03-02T09:40:00;19.25;;;11.90;;
56319;SDS011;42226;42.382;23.748;2024-03-02T09:42:28;17.88;;;11.77;;
56319;SDS011;42226;42.382;23.748;2024-03-02T09:44:55;19.25;;;11.30;;
56319;SDS011;42226;42.382;23.748;2024-03-02T09:47:25;18.70;;;11.85;;
56319;SDS011;42226;42.382;23.748;2024-03-02T09:49:54;16.92;;;11.48;;
56319;SDS011;42226;42.382;23.748;2024-03-02T09:52:24;13.60;;;10.52;;
56319;SDS011;42226;42.382;23.748;2024-03-02T09:54:51;17.15;;;11.07;;
56319;SDS011;42226;42.382;23.748;2024-03-02T09:57:19;20.23;;;12.32;;
56319;SDS011;42226;42.382;23.748;2024-03-02T09:59:46;14.73;;;10.75;;
56319;SDS011;42226;42.382;23.748;2024-03-02T10:02:13;15.07;;;10.77;;
56319;SDS011;42226;42.382;23.748;2024-03-02T10:04:40;14.18;;;10.63;;
56319;SDS011;42226;42.382;23.748;2024-03-02T10:07:17;15.60;;;11.35;;
56319;SDS011;42226;42.382;23.748;2024-03-02T10:09:48;14.13;;;10.98;;
56319;SDS011;42226;42.382;23.748;2024-03-02T10:12:18;14.73;;;10.90;;
56319;SDS011;42226;42.382;23.748;2024-03-02T10:14:45;14.52;;;11.00;;
56319;SDS011;42226;42.382;23.748;2024-03-02T10:17:16;15.25;;;10.90;;
56319;SDS011;42226;42.382;23.748;2024-03-02T10:19:44;15.63;;;11.00;;
56319;SDS011;42226;42.382;23.748;2024-03-02T10:22:11;11.98;;;9.75;;
56319;SDS011;42226;42.382;23.748;2024-03-02T10:24:39;13.32;;;10.55;;
56319;SDS011;42226;42.382;23.748;2024-03-02T10:27:31;12.55;;;10.85;;
56319;SDS011;42226;42.382;23.748;2024-03-02T10:30:00;13.65;;;10.75;;
56319;SDS011;42226;42.382;23.748;2024-03-02T10:32:49;10.45;;;9.35;;
56319;SDS011;42226;42.382;23.748;2024-03-02T10:38:58;13.75;;;9.80;;
56319;SDS011;42226;42.382;23.748;2024-03-02T10:41:26;10.88;;;9.77;;
56319;SDS011;42226;42.382;23.748;2024-03-02T10:43:55;11.63;;;9.75;;
56319;SDS011;42226;42.382;23.748;2024-03-02T10:46:29;10.55;;;9.27;;
56319;SDS011;42226;42.382;23.748;2024-03-02T10:48:59;11.38;;;10.13;;
56319;SDS011;42226;42.382;23.748;2024-03-02T10:51:28;11.75;;;10.02;;
56319;SDS011;42226;42.382;23.748;2024-03-02T10:53:59;13.02;;;11.75;;
56319;SDS011;42226;42.382;23.748;2024-03-02T10:56:28;11.02;;;9.85;;
56319;SDS011;42226;42.382;23.748;2024-03-02T11:02:05;10.00;;;9.00;;
56319;SDS011;42226;42.382;23.748;2024-03-02T11:04:38;11.10;;;10.00;;
56319;SDS011;42226;42.382;23.748;2024-03-02T11:07:08;10.60;;;9.57;;
56319;SDS011;42226;42.382;23.748;2024-03-02T11:09:59;13.10;;;11.27;;
56319;SDS011;42226;42.382;23.748;2024-03-02T11:12:46;12.27;;;10.95;;
56319;SDS011;42226;42.382;23.748;2024-03-02T11:15:22;11.23;;;10.13;;
56319;SDS011;42226;42.382;23.748;2024-03-02T11:17:52;13.50;;;12.30;;
56319;SDS011;42226;42.382;23.748;2024-03-02T11:20:21;11.40;;;10.20;;
56319;SDS011;42226;42.382;23.748;2024-03-02T11:22:48;12.85;;;11.65;;
56319;SDS011;42226;42.382;23.748;2024-03-02T11:25:22;10.45;;;9.00;;
56319;SDS011;42226;42.382;23.748;2024-03-02T11:30:53;10.00;;;8.93;;
56319;SDS011;42226;42.382;23.748;2024-03-02T11:33:13;12.60;;;11.45;;
56319;SDS011;42226;42.382;23.748;2024-03-02T11:35:48;10.38;;;9.25;;
56319;SDS011;42226;42.382;23.748;2024-03-02T11:38:15;11.60;;;10.43;;
56319;SDS011;42226;42.382;23.748;2024-03-02T11:40:45;14.07;;;12.38;;
56319;SDS011;42226;42.382;23.748;2024-03-02T11:43:12;16.33;;;14.82;;
56319;SDS011;42226;42.382;23.748;2024-03-02T11:45:41;14.15;;;11.73;;
56319;SDS011;42226;42.382;23.748;2024-03-02T11:48:13;15.77;;;13.75;;
56319;SDS011;42226;42.382;23.748;2024-03-02T11:50:42;13.77;;;12.52;;
56319;SDS011;42226;42.382;23.748;2024-03-02T11:53:21;11.25;;;10.07;;
56319;SDS011;42226;42.382;23.748;2024-03-02T11:55:49;11.05;;;9.95;;
56319;SDS011;42226;42.382;23.748;2024-03-02T11:58:18;11.82;;;10.82;;
56319;SDS011;42226;42.382;23.748;2024-03-02T12:00:47;9.85;;;8.85;;
56319;SDS011;42226;42.382;23.748;2024-03-02T12:03:16;12.05;;;10.93;;
56319;SDS011;42226;42.382;23.748;2024-03-02T12:05:44;10.25;;;9.25;;
56319;SDS011;42226;42.382;23.748;2024-03-02T12:08:21;10.27;;;9.23;;
56319;SDS011;42226;42.382;23.748;2024-03-02T12:11:01;10.35;;;9.35;;
56319;SDS011;42226;42.382;23.748;2024-03-02T12:13:28;12.52;;;11.43;;
56319;SDS011;42226;42.382;23.748;2024-03-02T12:15:55;11.80;;;10.32;;
56319;SDS011;42226;42.382;23.748;2024-03-02T12:21:10;11.90;;;10.90;;
56319;SDS011;42226;42.382;23.748;2024-03-02T12:23:38;10.27;;;9.20;;
56319;SDS011;42226;42.382;23.748;2024-03-02T12:26:04;11.85;;;10.68;;
56319;SDS011;42226;42.382;23.748;2024-03-02T12:28:33;11.25;;;10.30;;
56319;SDS011;42226;42.382;23.748;2024-03-02T12:31:00;10.65;;;9.55;;
56319;SDS011;42226;42.382;23.748;2024-03-02T12:33:27;13.20;;;12.10;;
56319;SDS011;42226;42.382;23.748;2024-03-02T12:35:56;12.07;;;11.07;;
56319;SDS011;42226;42.382;23.748;2024-03-02T12:38:25;12.68;;;11.48;;
56319;SDS011;42226;42.382;23.748;2024-03-02T12:43:55;11.68;;;10.18;;
56319;SDS011;42226;42.382;23.748;2024-03-02T12:49:14;10.63;;;9.73;;
56319;SDS011;42226;42.382;23.748;2024-03-02T12:51:43;11.38;;;10.45;;
56319;SDS011;42226;42.382;23.748;2024-03-02T12:54:12;9.95;;;9.15;;
56319;SDS011;42226;42.382;23.748;2024-03-02T12:56:41;9.30;;;8.38;;
56319;SDS011;42226;42.382;23.748;2024-03-02T12:59:18;9.60;;;8.80;;
56319;SDS011;42226;42.382;23.748;2024-03-02T13:01:53;9.70;;;8.80;;
56319;SDS011;42226;42.382;23.748;2024-03-02T13:04:24;9.00;;;8.20;;
56319;SDS011;42226;42.382;23.748;2024-03-02T13:06:54;9.68;;;8.82;;
56319;SDS011;42226;42.382;23.748;2024-03-02T13:09:23;11.30;;;10.30;;
56319;SDS011;42226;42.382;23.748;2024-03-02T13:11:51;9.95;;;9.05;;
56319;SDS011;42226;42.382;23.748;2024-03-02T13:14:21;10.07;;;9.07;;
56319;SDS011;42226;42.382;23.748;2024-03-02T13:16:51;10.50;;;9.60;;
56319;SDS011;42226;42.382;23.748;2024-03-02T13:19:23;10.93;;;10.02;;
56319;SDS011;42226;42.382;23.748;2024-03-02T13:21:50;9.52;;;8.73;;
56319;SDS011;42226;42.382;23.748;2024-03-02T13:24:17;9.98;;;9.07;;
56319;SDS011;42226;42.382;23.748;2024-03-02T13:26:46;10.73;;;9.70;;
56319;SDS011;42226;42.382;23.748;2024-03-02T13:29:13;18.73;;;17.08;;
56319;SDS011;42226;42.382;23.748;2024-03-02T13:31:40;11.10;;;10.10;;
56319;SDS011;42226;42.382;23.748;2024-03-02T13:34:07;11.07;;;9.98;;
56319;SDS011;42226;42.382;23.748;2024-03-02T13:36:34;12.15;;;10.95;;
56319;SDS011;42226;42.382;23.748;2024-03-02T13:39:02;18.00;;;12.07;;
56319;SDS011;42226;42.382;23.748;2024-03-02T13:41:31;11.57;;;10.38;;
56319;SDS011;42226;42.382;23.748;2024-03-02T13:43:59;12.00;;;11.00;;
56319;SDS011;42226;42.382;23.748;2024-03-02T13:46:27;9.90;;;9.00;;
56319;SDS011;42226;42.382;23.748;2024-03-02T13:48:55;10.43;;;9.63;;
56319;SDS011;42226;42.382;23.748;2024-03-02T13:51:26;8.73;;;7.97;;
56319;SDS011;42226;42.382;23.748;2024-03-02T13:53:54;9.15;;;8.45;;
56319;SDS011;42226;42.382;23.748;2024-03-02T13:56:20;8.95;;;8.15;;
56319;SDS011;42226;42.382;23.748;2024-03-02T13:58:48;9.20;;;8.30;;
56319;SDS011;42226;42.382;23.748;2024-03-02T14:01:14;9.88;;;9.07;;
56319;SDS011;42226;42.382;23.748;2024-03-02T14:03:42;9.23;;;8.40;;
56319;SDS011;42226;42.382;23.748;2024-03-02T14:06:10;9.13;;;8.27;;
56319;SDS011;42226;42.382;23.748;2024-03-02T14:08:38;10.15;;;9.35;;
56319;SDS011;42226;42.382;23.748;2024-03-02T14:11:06;11.07;;;10.18;;
56319;SDS011;42226;42.382;23.748;2024-03-02T14:13:33;10.23;;;9.30;;
56319;SDS011;42226;42.382;23.748;2024-03-02T14:16:00;11.77;;;10.88;;
56319;SDS011;42226;42.382;23.748;2024-03-02T14:18:27;12.20;;;10.25;;
56319;SDS011;42226;42.382;23.748;2024-03-02T14:20:55;12.02;;;10.82;;
56319;SDS011;42226;42.382;23.748;2024-03-02T14:23:22;11.82;;;10.70;;
56319;SDS011;42226;42.382;23.748;2024-03-02T14:25:52;13.50;;;12.30;;
56319;SDS011;42226;42.382;23.748;2024-03-02T14:28:18;11.55;;;10.25;;
56319;SDS011;42226;42.382;23.748;2024-03-02T14:30:46;11.82;;;10.52;;
56319;SDS011;42226;42.382;23.748;2024-03-02T14:33:13;13.80;;;11.98;;
56319;SDS011;42226;42.382;23.748;2024-03-02T14:35:40;14.38;;;12.30;;
56319;SDS011;42226;42.382;23.748;2024-03-02T14:38:08;14.23;;;12.18;;
56319;SDS011;42226;42.382;23.748;2024-03-02T14:40:36;13.18;;;11.75;;
56319;SDS011;42226;42.382;23.748;2024-03-02T14:43:03;14.38;;;12.57;;
56319;SDS011;42226;42.382;23.748;2024-03-02T14:45:31;14.32;;;12.82;;